createdAt,value
2023-04-13T00:00:29.329Z,84.73
2023-04-13T00:02:57.291Z,84.83
2023-04-13T00:05:25.300Z,84.66
2023-04-13T00:07:53.247Z,84.69
2023-04-13T00:10:21.178Z,85.47
2023-04-13T00:12:49.358Z,84.68
2023-04-13T00:15:17.804Z,85.23
2023-04-13T00:17:48.246Z,84.49
2023-04-13T00:20:16.197Z,84.70
2023-04-13T00:22:44.723Z,84.11
2023-04-13T00:25:14.427Z,84.55
2023-04-13T00:27:43.426Z,83.91
2023-04-13T00:30:12.575Z,83.72
2023-04-13T00:32:42.333Z,83.75
2023-04-13T00:35:13.066Z,83.79
2023-04-13T00:37:43.218Z,83.72
2023-04-13T00:40:12.392Z,83.46
2023-04-13T00:42:40.163Z,83.37
2023-04-13T00:45:09.577Z,83.70
2023-04-13T00:47:37.529Z,83.39
2023-04-13T00:50:07.943Z,83.20
2023-04-13T00:52:38.452Z,83.11
2023-04-13T00:55:07.819Z,83.25
2023-04-13T00:57:36.575Z,82.95
2023-04-13T01:00:08.644Z,83.43
2023-04-13T01:02:37.018Z,82.65
2023-04-13T01:05:06.478Z,82.52
2023-04-13T01:07:41.604Z,82.62
2023-04-13T01:10:12.777Z,82.69
2023-04-13T01:12:43.464Z,82.73
2023-04-13T01:15:14.657Z,82.83
2023-04-13T01:17:44.458Z,82.91
2023-04-13T01:20:14.293Z,82.46
2023-04-13T01:22:47.145Z,82.77
2023-04-13T01:25:32.778Z,83.34
2023-04-13T01:28:07.454Z,82.71
2023-04-13T01:30:36.165Z,82.37
2023-04-13T01:33:04.655Z,82.47
2023-04-13T01:35:32.782Z,82.33
2023-04-13T01:38:00.998Z,82.43
2023-04-13T01:40:31.023Z,82.74
2023-04-13T01:42:59.099Z,82.20
2023-04-13T01:45:29.972Z,82.36
2023-04-13T01:48:04.660Z,82.15
2023-04-13T01:50:35.096Z,81.83
2023-04-13T01:53:08.148Z,81.36
2023-04-13T01:55:38.513Z,81.16
2023-04-13T01:58:07.377Z,81.60
2023-04-13T02:00:37.244Z,81.23
2023-04-13T02:03:06.296Z,81.18
2023-04-13T02:05:35.108Z,81.16
2023-04-13T02:08:03.815Z,80.85
2023-04-13T02:10:32.218Z,80.63
2023-04-13T02:12:59.966Z,80.46
2023-04-13T02:15:28.023Z,80.37
2023-04-13T02:17:57.232Z,80.68
2023-04-13T02:20:25.189Z,80.24
2023-04-13T02:22:53.011Z,80.80
2023-04-13T02:25:20.893Z,80.30
2023-04-13T02:27:48.998Z,80.38
2023-04-13T02:30:17.393Z,79.78
2023-04-13T02:32:49.474Z,79.42
2023-04-13T02:35:20.360Z,79.29
2023-04-13T02:37:48.980Z,79.43
2023-04-13T02:40:16.841Z,79.78
2023-04-13T02:42:44.662Z,79.18
2023-04-13T02:45:15.535Z,79.67
2023-04-13T02:47:43.408Z,79.06
2023-04-13T02:50:12.326Z,79.85
2023-04-13T02:52:41.492Z,79.85
2023-04-13T02:55:10.483Z,79.39
2023-04-13T02:57:38.389Z,79.58
2023-04-13T03:00:10.764Z,79.95
2023-04-13T03:02:38.759Z,79.20
2023-04-13T03:05:07.478Z,78.99
2023-04-13T03:07:36.382Z,78.62
2023-04-13T03:10:06.303Z,78.92
2023-04-13T03:12:34.326Z,78.85
2023-04-13T03:15:03.841Z,79.27
2023-04-13T03:17:31.844Z,79.27
2023-04-13T03:19:59.846Z,78.36
2023-04-13T03:22:30.623Z,78.93
2023-04-13T03:24:58.503Z,78.80
2023-04-13T03:27:27.782Z,78.23
2023-04-13T03:29:55.597Z,78.74
2023-04-13T03:32:23.540Z,78.66
2023-04-13T03:34:51.764Z,78.46
2023-04-13T03:37:19.862Z,77.90
2023-04-13T03:39:47.660Z,78.03
2023-04-13T03:42:15.594Z,77.72
2023-04-13T03:44:44.903Z,78.41
2023-04-13T03:47:12.901Z,78.17
2023-04-13T03:49:40.648Z,78.03
2023-04-13T03:52:08.461Z,77.54
2023-04-13T03:54:36.799Z,78.17
2023-04-13T03:57:04.748Z,78.03
2023-04-13T03:59:32.611Z,78.31
2023-04-13T04:02:02.988Z,77.49
2023-04-13T04:04:30.926Z,77.99
2023-04-13T04:06:59.452Z,77.65
2023-04-13T04:09:27.588Z,77.94
2023-04-13T04:11:55.406Z,78.21
2023-04-13T04:14:23.795Z,77.92
2023-04-13T04:16:51.645Z,78.23
2023-04-13T04:19:20.846Z,78.04
2023-04-13T04:21:49.901Z,78.78
2023-04-13T04:24:22.808Z,78.47
2023-04-13T04:26:51.102Z,78.35
2023-04-13T04:29:22.203Z,78.57
2023-04-13T04:31:53.931Z,78.65
2023-04-13T04:34:23.312Z,78.21
2023-04-13T04:36:52.050Z,79.02
2023-04-13T04:39:22.422Z,78.90
2023-04-13T04:41:54.244Z,78.85
2023-04-13T04:44:25.173Z,78.21
2023-04-13T04:46:54.232Z,78.18
2023-04-13T04:49:23.526Z,77.92
2023-04-13T04:51:52.046Z,78.33
2023-04-13T04:54:20.192Z,78.48
2023-04-13T04:56:48.278Z,78.20
2023-04-13T04:59:16.058Z,78.49
2023-04-13T05:01:44.223Z,79.17
2023-04-13T05:04:12.322Z,78.08
2023-04-13T05:06:42.833Z,78.42
2023-04-13T05:09:10.961Z,78.25
2023-04-13T05:11:39.206Z,78.56
2023-04-13T05:14:07.073Z,79.18
2023-04-13T05:16:34.952Z,79.01
2023-04-13T05:19:05.452Z,79.07
2023-04-13T05:21:33.842Z,79.39
2023-04-13T05:24:03.024Z,79.02
2023-04-13T05:26:31.692Z,78.92
2023-04-13T05:28:59.719Z,79.71
2023-04-13T05:31:28.775Z,79.67
2023-04-13T05:33:56.637Z,79.27
2023-04-13T05:36:24.428Z,80.24
2023-04-13T05:38:52.361Z,79.86
2023-04-13T05:41:21.784Z,79.24
2023-04-13T05:43:50.097Z,79.48
2023-04-13T05:46:18.051Z,80.17
2023-04-13T05:48:45.940Z,79.38
2023-04-13T05:51:13.816Z,79.69
2023-04-13T05:53:41.585Z,80.34
2023-04-13T05:56:10.116Z,80.01
2023-04-13T05:58:40.084Z,79.95
2023-04-13T06:01:11.016Z,80.42
2023-04-13T06:03:39.041Z,80.75
2023-04-13T06:06:08.698Z,81.24
2023-04-13T06:08:36.552Z,80.87
2023-04-13T06:11:04.364Z,81.38
2023-04-13T06:13:32.706Z,81.63
2023-04-13T06:16:02.224Z,81.45
2023-04-13T06:18:30.674Z,81.81
2023-04-13T06:20:58.916Z,82.35
2023-04-13T06:23:26.950Z,82.90
2023-04-13T06:25:55.052Z,82.31
2023-04-13T06:28:28.929Z,83.03
2023-04-13T06:30:57.040Z,82.98
2023-04-13T06:33:26.551Z,83.75
2023-04-13T06:35:54.334Z,83.33
2023-04-13T06:38:22.170Z,84.13
2023-04-13T06:40:49.930Z,84.36
2023-04-13T06:43:29.085Z,83.40
2023-04-13T06:46:04.544Z,84.37
2023-04-13T06:48:33.765Z,84.41
2023-04-13T06:51:01.707Z,84.06
2023-04-13T06:53:29.523Z,84.41
2023-04-13T06:55:57.482Z,85.13
2023-04-13T06:58:25.479Z,85.18
2023-04-13T07:00:53.270Z,84.90
2023-04-13T07:03:21.365Z,83.94
2023-04-13T07:05:50.741Z,85.44
2023-04-13T07:08:19.506Z,85.04
2023-04-13T07:10:47.549Z,84.80
2023-04-13T07:13:15.319Z,84.75
2023-04-13T07:15:43.837Z,84.81
2023-04-13T07:18:11.745Z,84.87
2023-04-13T07:20:39.880Z,85.17
2023-04-13T07:23:10.089Z,85.07
2023-04-13T07:25:38.317Z,84.63
2023-04-13T07:28:06.498Z,84.26
2023-04-13T07:30:34.274Z,84.75
2023-04-13T07:33:02.255Z,84.24
2023-04-13T07:35:30.571Z,85.20
2023-04-13T07:37:58.336Z,85.01
2023-04-13T07:40:27.561Z,84.37
2023-04-13T07:42:55.362Z,84.70
2023-04-13T07:45:23.662Z,85.14
2023-04-13T07:47:53.570Z,84.81
2023-04-13T07:50:21.758Z,84.75
2023-04-13T07:52:49.659Z,85.44
2023-04-13T07:55:17.464Z,85.65
2023-04-13T07:57:46.658Z,85.47
2023-04-13T08:00:16.964Z,85.58
2023-04-13T08:02:45.014Z,85.56
2023-04-13T08:05:13.381Z,85.06
2023-04-13T08:07:41.357Z,85.27
2023-04-13T08:10:10.681Z,84.96
2023-04-13T08:12:38.553Z,84.69
2023-04-13T08:15:09.818Z,84.92
2023-04-13T08:17:38.060Z,84.63
2023-04-13T08:20:09.384Z,84.68
2023-04-13T08:22:37.528Z,84.54
2023-04-13T08:25:06.809Z,85.25
2023-04-13T08:27:34.639Z,84.26
2023-04-13T08:30:03.706Z,84.03
2023-04-13T08:32:32.867Z,84.27
2023-04-13T08:35:06.750Z,83.97
2023-04-13T08:37:35.112Z,83.49
2023-04-13T08:40:05.898Z,83.92
2023-04-13T08:42:33.936Z,83.44
2023-04-13T08:45:02.161Z,83.36
2023-04-13T08:47:30.278Z,83.49
2023-04-13T08:50:00.172Z,83.58
2023-04-13T08:52:28.776Z,83.56
2023-04-13T08:54:57.704Z,84.05
2023-04-13T08:57:26.096Z,84.13
2023-04-13T08:59:54.225Z,85.03
2023-04-13T09:02:26.541Z,84.43
2023-04-13T09:04:56.072Z,84.62
2023-04-13T09:07:27.773Z,84.68
2023-04-13T09:09:57.972Z,85.12
2023-04-13T09:12:26.126Z,85.09
2023-04-13T09:14:54.071Z,84.44
2023-04-13T09:17:26.875Z,85.00
2023-04-13T09:19:56.252Z,84.91
2023-04-13T09:22:26.074Z,84.80
2023-04-13T09:24:53.963Z,85.07
2023-04-13T09:27:23.444Z,84.69
2023-04-13T09:29:52.726Z,84.64
2023-04-13T09:32:21.764Z,84.90
2023-04-13T09:35:00.048Z,84.40
2023-04-13T09:37:29.467Z,84.14
2023-04-13T09:39:57.468Z,83.76
2023-04-13T09:42:25.296Z,83.45
2023-04-13T09:44:59.175Z,82.94
2023-04-13T09:47:36.779Z,82.66
2023-04-13T09:50:05.783Z,82.29
2023-04-13T09:52:34.946Z,81.32
2023-04-13T09:55:02.726Z,80.99
2023-04-13T09:57:32.607Z,81.13
2023-04-13T10:00:01.897Z,81.44
2023-04-13T10:02:30.234Z,81.03
2023-04-13T10:04:59.134Z,81.49
2023-04-13T10:07:30.140Z,81.18
2023-04-13T10:09:59.416Z,80.95
2023-04-13T10:12:28.164Z,80.55
2023-04-13T10:15:04.979Z,80.39
2023-04-13T10:17:47.465Z,79.57
2023-04-13T10:20:15.993Z,78.99
2023-04-13T10:22:45.398Z,78.36
2023-04-13T10:25:29.536Z,76.02
2023-04-13T10:28:01.125Z,74.28
2023-04-13T10:30:29.485Z,74.34
2023-04-13T10:33:05.720Z,72.10
2023-04-13T10:35:36.993Z,73.14
2023-04-13T10:38:05.265Z,73.16
2023-04-13T10:40:44.924Z,74.53
2023-04-13T10:43:12.751Z,75.10
2023-04-13T10:45:40.538Z,75.87
2023-04-13T10:48:08.799Z,76.63
2023-04-13T10:50:37.859Z,76.62
2023-04-13T10:53:07.512Z,74.70
2023-04-13T10:55:35.903Z,74.24
2023-04-13T10:58:16.377Z,71.54
2023-04-13T11:00:47.107Z,69.94
2023-04-13T11:03:16.953Z,69.54
2023-04-13T11:05:46.133Z,68.48
2023-04-13T11:08:18.824Z,68.82
2023-04-13T11:10:51.463Z,68.68
2023-04-13T11:13:20.991Z,69.00
2023-04-13T11:15:50.139Z,68.50
2023-04-13T11:18:25.596Z,68.82
2023-04-13T11:20:53.553Z,69.89
2023-04-13T11:23:23.999Z,69.11
2023-04-13T11:25:56.545Z,69.75
2023-04-13T11:28:27.176Z,68.93
2023-04-13T11:30:56.497Z,70.06
2023-04-13T11:33:28.037Z,70.58
2023-04-13T11:35:56.464Z,69.97
2023-04-13T11:38:24.725Z,67.61
2023-04-13T11:40:58.921Z,67.83
2023-04-13T11:43:38.024Z,66.10
2023-04-13T11:46:06.191Z,65.58
2023-04-13T11:48:34.091Z,65.56
2023-04-13T11:51:01.914Z,62.14
2023-04-13T11:53:30.202Z,58.88
2023-04-13T11:55:58.141Z,57.09
2023-04-13T11:58:25.870Z,57.66
2023-04-13T12:00:59.856Z,59.44
2023-04-13T12:03:46.981Z,60.03
2023-04-13T12:06:21.109Z,59.94
2023-04-13T12:08:54.566Z,58.25
2023-04-13T12:11:41.232Z,60.94
2023-04-13T12:14:45.982Z,64.15
2023-04-13T12:19:46.671Z,67.20
2023-04-13T12:22:15.029Z,68.29
2023-04-13T12:24:43.221Z,69.11
2023-04-13T12:27:18.491Z,70.22
2023-04-13T12:29:47.149Z,71.81
2023-04-13T12:32:17.325Z,72.65
2023-04-13T12:34:45.444Z,73.40
2023-04-13T12:37:13.261Z,73.91
2023-04-13T12:39:41.675Z,74.87
2023-04-13T12:42:09.513Z,75.03
2023-04-13T12:44:37.374Z,74.83
2023-04-13T12:47:06.264Z,73.99
2023-04-13T12:49:35.494Z,74.06
2023-04-13T12:52:03.409Z,73.13
2023-04-13T12:54:31.341Z,73.17
2023-04-13T12:56:59.756Z,72.58
2023-04-13T12:59:27.587Z,71.75
2023-04-13T13:01:55.454Z,71.52
2023-04-13T13:04:23.280Z,69.15
2023-04-13T13:06:52.516Z,69.59
2023-04-13T13:09:20.827Z,66.89
2023-04-13T13:11:48.589Z,64.50
2023-04-13T13:14:16.404Z,64.15
2023-04-13T13:16:44.319Z,60.68
2023-04-13T13:19:12.173Z,60.08
2023-04-13T13:21:39.919Z,59.41
2023-04-13T13:24:09.481Z,58.42
2023-04-13T13:27:00.315Z,57.34
2023-04-13T13:29:25.397Z,57.46
2023-04-13T13:31:53.262Z,56.11
2023-04-13T13:34:21.204Z,56.42
2023-04-13T13:36:49.593Z,55.25
2023-04-13T13:39:21.367Z,56.19
2023-04-13T13:41:49.205Z,57.55
2023-04-13T13:44:17.455Z,58.32
2023-04-13T13:46:45.288Z,59.08
2023-04-13T13:49:13.137Z,60.61
2023-04-13T13:51:40.942Z,61.93
2023-04-13T13:54:08.716Z,62.36
2023-04-13T13:56:37.910Z,62.56
2023-04-13T13:59:06.279Z,63.69
2023-04-13T14:01:34.260Z,63.95
2023-04-13T14:04:02.283Z,64.55
2023-04-13T14:06:30.165Z,64.40
2023-04-13T14:08:58.320Z,64.57
2023-04-13T14:11:26.370Z,64.30
2023-04-13T14:13:55.752Z,64.52
2023-04-13T14:16:24.211Z,65.53
2023-04-13T14:18:52.400Z,65.57
2023-04-13T14:21:21.565Z,66.40
2023-04-13T14:23:49.793Z,66.79
2023-04-13T14:26:17.629Z,67.39
2023-04-13T14:28:45.855Z,66.66
2023-04-13T14:31:16.159Z,66.98
2023-04-13T14:33:44.187Z,67.85
2023-04-13T14:36:15.042Z,68.62
2023-04-13T14:38:43.365Z,69.97
2023-04-13T14:41:11.099Z,69.94
2023-04-13T14:43:38.851Z,70.67
2023-04-13T14:46:06.712Z,71.21
2023-04-13T14:48:36.131Z,71.73
2023-04-13T14:51:03.913Z,71.80
2023-04-13T14:53:31.709Z,72.02
2023-04-13T14:55:59.536Z,72.16
2023-04-13T14:58:27.349Z,71.25
2023-04-13T15:00:55.505Z,69.86
2023-04-13T15:03:24.376Z,69.04
2023-04-13T15:05:58.022Z,69.10
2023-04-13T15:08:30.421Z,69.01
2023-04-13T15:10:59.306Z,68.21
2023-04-13T15:13:27.065Z,69.03
2023-04-13T15:15:55.259Z,70.21
2023-04-13T15:18:23.068Z,70.71
2023-04-13T15:20:50.870Z,71.27
2023-04-13T15:23:20.289Z,71.50
2023-04-13T15:25:48.224Z,71.17
2023-04-13T15:28:15.961Z,71.15
2023-04-13T15:30:43.888Z,71.43
2023-04-13T15:33:11.770Z,71.42
2023-04-13T15:35:39.606Z,71.45
2023-04-13T15:38:07.990Z,70.63
2023-04-13T15:40:38.479Z,69.98
2023-04-13T15:43:06.740Z,69.71
2023-04-13T15:45:34.554Z,69.35
2023-04-13T15:48:02.776Z,69.87
2023-04-13T15:50:30.722Z,69.51
2023-04-13T15:52:58.477Z,69.02
2023-04-13T15:55:26.290Z,66.40
2023-04-13T15:57:57.088Z,66.16
2023-04-13T16:00:26.202Z,65.69
2023-04-13T16:02:54.135Z,63.65
2023-04-13T16:05:22.283Z,63.69
2023-04-13T16:07:50.099Z,62.49
2023-04-13T16:10:18.808Z,60.14
2023-04-13T16:12:47.084Z,60.53
2023-04-13T16:15:16.531Z,61.89
2023-04-13T16:17:45.361Z,60.38
2023-04-13T16:20:20.401Z,62.38
2023-04-13T16:22:50.632Z,62.14
2023-04-13T16:25:19.326Z,61.02
2023-04-13T16:27:48.992Z,62.11
2023-04-13T16:30:20.986Z,63.26
2023-04-13T16:32:50.431Z,63.00
2023-04-13T16:35:18.512Z,63.92
2023-04-13T16:37:46.299Z,64.22
2023-04-13T16:40:15.417Z,64.05
2023-04-13T16:42:43.691Z,64.33
2023-04-13T16:45:15.063Z,64.01
2023-04-13T16:47:44.687Z,64.54
2023-04-13T16:50:13.424Z,64.20
2023-04-13T16:52:41.457Z,63.83
2023-04-13T16:55:14.006Z,63.65
2023-04-13T16:57:42.827Z,63.58
2023-04-13T17:00:11.642Z,63.74
2023-04-13T17:02:40.945Z,64.07
2023-04-13T17:05:11.542Z,63.77
2023-04-13T17:07:40.219Z,63.73
2023-04-13T17:10:10.006Z,62.81
2023-04-13T17:12:37.821Z,62.86
2023-04-13T17:15:06.543Z,63.44
2023-04-13T17:17:35.716Z,63.35
2023-04-13T17:20:03.848Z,64.29
2023-04-13T17:22:33.069Z,64.24
2023-04-13T17:25:01.142Z,64.58
2023-04-13T17:27:28.920Z,65.31
2023-04-13T17:29:58.044Z,65.64
2023-04-13T17:32:25.929Z,65.00
2023-04-13T17:34:53.717Z,65.15
2023-04-13T17:37:22.382Z,65.54
2023-04-13T17:39:51.562Z,65.71
2023-04-13T17:42:19.368Z,66.18
2023-04-13T17:44:47.280Z,65.78
2023-04-13T17:47:15.135Z,66.54
2023-04-13T17:49:42.997Z,66.18
2023-04-13T17:52:10.834Z,66.81
2023-04-13T17:54:40.553Z,66.85
2023-04-13T17:57:09.745Z,66.22
2023-04-13T17:59:37.538Z,66.71
2023-04-13T18:02:05.457Z,66.52
2023-04-13T18:04:33.525Z,67.12
2023-04-13T18:07:01.751Z,67.35
2023-04-13T18:09:29.513Z,67.41
2023-04-13T18:11:57.274Z,67.59
2023-04-13T18:14:26.401Z,68.33
2023-04-13T18:16:54.194Z,68.83
2023-04-13T18:19:21.900Z,69.00
2023-04-13T18:21:49.771Z,69.21
2023-04-13T18:24:17.542Z,69.55
2023-04-13T18:26:45.574Z,70.19
2023-04-13T18:29:14.078Z,70.54
2023-04-13T18:31:43.337Z,70.64
2023-04-13T18:34:14.191Z,70.97
2023-04-13T18:36:42.320Z,71.05
2023-04-13T18:39:10.117Z,70.91
2023-04-13T18:41:40.982Z,71.12
2023-04-13T18:44:10.025Z,71.33
2023-04-13T18:46:37.836Z,71.54
2023-04-13T18:49:07.117Z,71.61
2023-04-13T18:51:34.977Z,71.78
2023-04-13T18:54:02.993Z,72.17
2023-04-13T18:56:30.854Z,72.29
2023-04-13T18:58:58.692Z,72.70
2023-04-13T19:01:26.555Z,73.08
2023-04-13T19:03:54.801Z,72.85
2023-04-13T19:06:24.060Z,73.13
2023-04-13T19:08:51.792Z,73.21
2023-04-13T19:11:20.114Z,73.51
2023-04-13T19:13:48.238Z,73.67
2023-04-13T19:16:16.093Z,73.84
2023-04-13T19:18:43.902Z,73.68
2023-04-13T19:21:11.663Z,74.01
2023-04-13T19:23:40.877Z,74.19
2023-04-13T19:26:08.683Z,74.31
2023-04-13T19:28:36.461Z,74.91
2023-04-13T19:31:04.251Z,74.63
2023-04-13T19:33:33.532Z,74.75
2023-04-13T19:36:01.822Z,75.19
2023-04-13T19:38:29.543Z,75.08
2023-04-13T19:40:58.840Z,75.56
2023-04-13T19:43:28.153Z,75.23
2023-04-13T19:45:56.611Z,76.06
2023-04-13T19:48:24.464Z,75.93
2023-04-13T19:50:52.223Z,75.94
2023-04-13T19:53:20.020Z,76.01
2023-04-13T19:55:47.774Z,76.41
2023-04-13T19:58:16.911Z,76.12
2023-04-13T20:00:47.466Z,76.31
2023-04-13T20:03:15.455Z,76.18
2023-04-13T20:05:43.282Z,76.23
2023-04-13T20:08:11.040Z,76.58
2023-04-13T20:10:38.789Z,76.62
2023-04-13T20:13:07.059Z,76.48
2023-04-13T20:15:36.268Z,76.29
2023-04-13T20:18:07.199Z,76.60
2023-04-13T20:20:36.930Z,76.58
2023-04-13T20:23:05.075Z,76.79
2023-04-13T20:25:32.817Z,76.79
2023-04-13T20:28:00.684Z,76.72
2023-04-13T20:30:28.521Z,76.83
2023-04-13T20:32:57.777Z,77.02
2023-04-13T20:35:25.693Z,77.27
2023-04-13T20:37:53.475Z,76.85
2023-04-13T20:40:27.095Z,77.09
2023-04-13T20:42:55.276Z,77.71
2023-04-13T20:45:23.320Z,77.20
2023-04-13T20:47:53.378Z,76.94
2023-04-13T20:50:25.696Z,77.33
2023-04-13T20:52:56.705Z,77.17
2023-04-13T20:55:24.857Z,77.58
2023-04-13T20:57:52.633Z,77.40
2023-04-13T21:00:23.175Z,77.72
2023-04-13T21:02:53.259Z,77.85
2023-04-13T21:05:23.148Z,77.63
2023-04-13T21:07:51.844Z,77.47
2023-04-13T21:10:19.652Z,77.43
2023-04-13T21:12:47.479Z,77.41
2023-04-13T21:15:15.245Z,77.40
2023-04-13T21:17:43.196Z,77.38
2023-04-13T21:20:12.751Z,77.35
2023-04-13T21:22:41.912Z,77.00
2023-04-13T21:25:10.218Z,76.88
2023-04-13T21:27:37.991Z,77.09
2023-04-13T21:30:07.013Z,77.66
2023-04-13T21:32:34.791Z,77.82
2023-04-13T21:35:06.263Z,77.63
2023-04-13T21:37:34.232Z,77.59
2023-04-13T21:40:04.377Z,77.77
2023-04-13T21:42:32.181Z,77.21
2023-04-13T21:44:59.940Z,77.46
2023-04-13T21:47:28.012Z,76.97
2023-04-13T21:49:55.885Z,77.27
2023-04-13T21:52:23.963Z,77.49
2023-04-13T21:54:51.950Z,77.68
2023-04-13T21:57:21.415Z,77.84
2023-04-13T21:59:49.161Z,78.50
2023-04-13T22:02:17.022Z,78.39
2023-04-13T22:04:44.852Z,77.53
2023-04-13T22:07:12.682Z,77.34
2023-04-13T22:09:40.643Z,77.80
2023-04-13T22:12:10.634Z,77.90
2023-04-13T22:14:39.979Z,77.51
2023-04-13T22:17:07.801Z,77.84
2023-04-13T22:19:35.820Z,78.11
2023-04-13T22:22:03.698Z,77.41
2023-04-13T22:24:31.797Z,78.24
2023-04-13T22:26:59.875Z,77.93
2023-04-13T22:29:27.634Z,78.48
2023-04-13T22:31:58.168Z,78.06
2023-04-13T22:34:27.228Z,78.69
2023-04-13T22:36:55.264Z,78.09
2023-04-13T22:39:23.163Z,78.75
2023-04-13T22:41:51.278Z,77.99
2023-04-13T22:44:19.882Z,78.85
2023-04-13T22:46:50.086Z,78.42
2023-04-13T22:49:19.529Z,79.28
2023-04-13T22:51:47.311Z,78.56
2023-04-13T22:54:18.232Z,79.11
2023-04-13T22:56:46.993Z,78.51
2023-04-13T22:59:16.246Z,79.38
2023-04-13T23:01:44.268Z,78.93
2023-04-13T23:04:15.149Z,79.07
2023-04-13T23:06:45.383Z,79.09
2023-04-13T23:09:13.117Z,78.56
2023-04-13T23:11:41.136Z,79.36
2023-04-13T23:14:09.212Z,78.98
2023-04-13T23:16:37.223Z,78.29
2023-04-13T23:19:05.129Z,78.31
2023-04-13T23:21:33.915Z,78.73
2023-04-13T23:24:03.495Z,77.54
2023-04-13T23:26:31.229Z,77.65
2023-04-13T23:28:59.282Z,76.82
2023-04-13T23:31:27.717Z,76.51
2023-04-13T23:33:55.576Z,75.61
2023-04-13T23:36:23.338Z,74.73
2023-04-13T23:38:51.180Z,74.13
2023-04-13T23:41:21.165Z,73.85
2023-04-13T23:43:51.624Z,73.06
2023-04-13T23:46:19.543Z,72.64
2023-04-13T23:48:47.472Z,72.41
2023-04-13T23:51:15.226Z,71.77
2023-04-13T23:53:42.998Z,71.91
2023-04-13T23:56:10.797Z,71.69
2023-04-13T23:58:39.981Z,72.26
